Bielsa, Aragón

latitud= 42° 37' 48''N |longitud= 000° 13' 29''E
990 metros sobre el nivel del mar | datos mensuales

Fecha, hora, temperatura, viento dirección y velocidad, humedad y presión.

  • 16-08-2018 02:00:00 | 13.30°C | Noroeste |2.00 km/h | 93.00% | 907.20 hPa
  • 16-08-2018 01:00:00 | 14.10°C | Calma |0.00 km/h | 91.00% | 907.10 hPa
  • 16-08-2018 00:00:00 | 14.70°C | Calma |0.00 km/h | 89.00% | 907.20 hPa
  • 15-08-2018 23:00:00 | 15.70°C | Calma |0.00 km/h | 86.00% | 907.00 hPa
  • 15-08-2018 22:00:00 | 17.00°C | Calma |0.00 km/h | 82.00% | 906.60 hPa
  • 15-08-2018 21:00:00 | 18.30°C | Noroeste |3.00 km/h | 77.00% | 905.80 hPa
  • 15-08-2018 20:00:00 | 20.60°C | Noroeste |2.00 km/h | 69.00% | 905.10 hPa
  • 15-08-2018 19:00:00 | 23.40°C | Calma |0.00 km/h | 54.00% | 905.00 hPa
  • 15-08-2018 18:00:00 | 27.30°C | Sudeste |5.00 km/h | 39.00% | 905.00 hPa
  • 15-08-2018 17:00:00 | 27.30°C | Sudeste |6.00 km/h | 41.00% | 905.10 hPa
  • 15-08-2018 16:00:00 | 27.20°C | Sudeste |8.00 km/h | 40.00% | 905.40 hPa
  • 15-08-2018 15:00:00 | 27.10°C | Sudeste |10.00 km/h | 40.00% | 905.80 hPa
  • 15-08-2018 14:00:00 | 25.40°C | Sudeste |8.00 km/h | 40.00% | 906.10 hPa
  • 15-08-2018 13:00:00 | 24.90°C | Sudeste |9.00 km/h | 49.00% | 906.60 hPa
  • 15-08-2018 12:00:00 | 22.90°C | Sudeste |5.00 km/h | 51.00% | 907.20 hPa
  • 15-08-2018 11:00:00 | 18.20°C | Sudeste |3.00 km/h | 59.00% | 907.60 hPa
  • 15-08-2018 10:00:00 | 14.60°C | Norte |5.00 km/h | 62.00% | 907.90 hPa
  • 15-08-2018 09:00:00 | 9.50°C | Calma |0.00 km/h | 93.00% | 908.00 hPa
  • 15-08-2018 08:00:00 | 8.20°C | Calma |0.00 km/h | 91.00% | 908.00 hPa
  • 15-08-2018 07:00:00 | 8.30°C | Calma |0.00 km/h | 91.00% | 908.10 hPa
  • 15-08-2018 06:00:00 | 8.80°C | Noroeste |4.00 km/h | 90.00% | 908.00 hPa
  • 15-08-2018 05:00:00 | 9.30°C | Calma |0.00 km/h | 90.00% | 908.30 hPa
  • 15-08-2018 04:00:00 | 9.90°C | Noroeste |2.00 km/h | 88.00% | 908.20 hPa
  • 15-08-2018 03:00:00 | 10.90°C | Noroeste |2.00 km/h | 87.00% | 908.30 hPa